Terminal Aerodrome Forecast
Issued by NWS Albany, NY

Home | Current Version | Previous Version | Text Only | Print | Product List | Glossary On
Versions: 1 2 3 4 5 6 7 8 9 10 11 12 13 14 15
201
FTUS41 KALY 251801 CCB
TAFALB
TAF COR
KALB 251801Z 2518/2618 02005KT 3SM -SHRA BR SCT006 OVC015
      TEMPO 2518/2520 2SM -SHRA BR BKN006 OVC015
     FM252000 03005KT 3SM -DZ BR SCT007 OVC015
     FM252300 VRB03KT 4SM BR OVC007
     FM260900 26005KT 6SM BR VCSH OVC015
     FM261200 27010G20KT P6SM BKN015 OVC025
     FM261500 27015G22KT P6SM BKN025 BKN050=

USA.gov is the U.S. government's official web portal to all federal, state and local government web resources and services.